createdAt,value
2023-04-16T00:01:18.372Z,86.80
2023-04-16T00:03:51.111Z,87.13
2023-04-16T00:06:24.270Z,87.08
2023-04-16T00:08:56.835Z,87.42
2023-04-16T00:11:29.376Z,87.20
2023-04-16T00:14:02.053Z,87.12
2023-04-16T00:16:34.703Z,86.82
2023-04-16T00:19:07.409Z,86.31
2023-04-16T00:21:40.221Z,86.55
2023-04-16T00:24:13.065Z,86.14
2023-04-16T00:26:46.378Z,86.29
2023-04-16T00:29:19.236Z,86.07
2023-04-16T00:31:51.740Z,87.07
2023-04-16T00:34:24.301Z,87.97
2023-04-16T00:36:56.953Z,87.84
2023-04-16T00:39:29.441Z,87.76
2023-04-16T00:42:01.985Z,87.57
2023-04-16T00:44:37.448Z,87.99
2023-04-16T00:47:10.216Z,87.15
2023-04-16T00:49:42.903Z,87.30
2023-04-16T00:52:15.441Z,87.58
2023-04-16T00:54:48.835Z,87.91
2023-04-16T00:57:23.907Z,87.35
2023-04-16T00:59:56.719Z,87.09
2023-04-16T01:02:29.349Z,86.90
2023-04-16T01:05:03.143Z,87.04
2023-04-16T01:07:35.680Z,86.51
2023-04-16T01:10:08.847Z,87.29
2023-04-16T01:12:41.412Z,87.24
2023-04-16T01:15:13.920Z,87.30
2023-04-16T01:17:47.188Z,87.07
2023-04-16T01:20:19.789Z,88.40
2023-04-16T01:22:52.311Z,87.21
2023-04-16T01:25:24.902Z,86.59
2023-04-16T01:27:59.082Z,87.50
2023-04-16T01:30:31.736Z,86.52
2023-04-16T01:33:04.580Z,87.43
2023-04-16T01:35:37.739Z,87.55
2023-04-16T01:38:10.940Z,87.96
2023-04-16T01:40:43.684Z,88.05
2023-04-16T01:43:16.311Z,86.89
2023-04-16T01:45:48.773Z,87.46
2023-04-16T01:48:21.396Z,87.71
2023-04-16T01:50:53.985Z,87.29
2023-04-16T01:53:26.486Z,87.52
2023-04-16T01:55:58.964Z,88.59
2023-04-16T01:58:32.644Z,88.02
2023-04-16T02:01:05.884Z,87.45
2023-04-16T02:03:39.041Z,87.34
2023-04-16T02:06:11.604Z,88.65
2023-04-16T02:08:44.193Z,87.44
2023-04-16T02:11:16.754Z,88.33
2023-04-16T02:13:49.274Z,87.72
2023-04-16T02:16:22.018Z,88.92
2023-04-16T02:18:54.587Z,88.32
2023-04-16T02:21:27.502Z,89.27
2023-04-16T02:24:00.227Z,89.18
2023-04-16T02:26:33.178Z,87.91
2023-04-16T02:29:06.314Z,89.16
2023-04-16T02:31:39.101Z,89.11
2023-04-16T02:34:11.773Z,88.17
2023-04-16T02:36:44.324Z,87.94
2023-04-16T02:39:16.880Z,88.45
2023-04-16T02:41:49.462Z,89.31
2023-04-16T02:44:21.970Z,88.42
2023-04-16T02:46:54.442Z,88.51
2023-04-16T02:49:27.004Z,88.38
2023-04-16T02:51:59.563Z,88.31
2023-04-16T02:54:32.125Z,87.76
2023-04-16T02:57:06.083Z,87.99
2023-04-16T02:59:38.603Z,87.57
2023-04-16T03:02:11.410Z,88.33
2023-04-16T03:04:44.013Z,87.69
2023-04-16T03:07:18.252Z,87.51
2023-04-16T03:09:50.884Z,87.62
2023-04-16T03:12:23.388Z,87.88
2023-04-16T03:14:55.897Z,86.71
2023-04-16T03:17:28.646Z,87.56
2023-04-16T03:20:01.238Z,87.53
2023-04-16T03:22:33.729Z,87.43
2023-04-16T03:25:07.915Z,87.01
2023-04-16T03:27:41.018Z,88.01
2023-04-16T03:30:15.489Z,88.05
2023-04-16T03:32:48.157Z,88.31
2023-04-16T03:35:21.058Z,88.38
2023-04-16T03:37:53.558Z,87.54
2023-04-16T03:40:26.103Z,87.64
2023-04-16T03:43:01.637Z,89.00
2023-04-16T03:45:34.138Z,87.85
2023-04-16T03:48:07.031Z,89.33
2023-04-16T03:50:39.641Z,89.04
2023-04-16T03:53:13.651Z,90.10
2023-04-16T03:55:52.620Z,90.44
2023-04-16T03:58:25.213Z,89.38
2023-04-16T04:00:57.702Z,90.55
2023-04-16T04:03:30.839Z,89.32
2023-04-16T04:06:08.528Z,89.47
2023-04-16T04:08:41.057Z,89.02
2023-04-16T04:11:13.667Z,90.30
2023-04-16T04:13:46.314Z,90.14
2023-04-16T04:16:19.026Z,90.11
2023-04-16T04:18:51.502Z,89.41
2023-04-16T04:21:24.045Z,89.49
2023-04-16T04:23:56.534Z,89.53
2023-04-16T04:26:29.289Z,88.96
2023-04-16T04:29:01.897Z,88.83
2023-04-16T04:31:34.644Z,89.66
2023-04-16T04:34:07.274Z,88.29
2023-04-16T04:36:39.833Z,88.89
2023-04-16T04:39:12.471Z,90.16
2023-04-16T04:41:45.031Z,90.58
2023-04-16T04:44:17.579Z,89.72
2023-04-16T04:46:50.104Z,89.78
2023-04-16T04:49:22.648Z,89.90
2023-04-16T04:51:57.378Z,90.42
2023-04-16T04:54:31.322Z,89.92
2023-04-16T04:57:03.948Z,89.14
2023-04-16T04:59:36.696Z,89.36
2023-04-16T05:02:12.168Z,89.38
2023-04-16T05:04:44.726Z,89.56
2023-04-16T05:07:17.237Z,89.82
2023-04-16T05:09:49.794Z,90.17
2023-04-16T05:12:22.393Z,90.47
2023-04-16T05:14:55.003Z,89.63
2023-04-16T05:17:27.554Z,89.48
2023-04-16T05:20:00.695Z,89.12
2023-04-16T05:22:33.375Z,89.44
2023-04-16T05:25:06.216Z,89.93
2023-04-16T05:27:38.847Z,89.57
2023-04-16T05:30:11.889Z,88.74
2023-04-16T05:32:44.424Z,88.98
2023-04-16T05:35:17.766Z,89.26
2023-04-16T05:37:50.588Z,90.25
2023-04-16T05:40:23.116Z,91.00
2023-04-16T05:42:55.560Z,90.00
2023-04-16T05:45:28.247Z,89.72
2023-04-16T05:48:00.795Z,89.27
2023-04-16T05:50:33.321Z,89.32
2023-04-16T05:53:07.663Z,88.19
2023-04-16T05:55:40.232Z,89.84
2023-04-16T05:58:12.778Z,89.73
2023-04-16T06:00:45.579Z,90.05
2023-04-16T06:03:18.281Z,90.21
2023-04-16T06:05:50.856Z,90.63
2023-04-16T06:08:23.577Z,90.86
2023-04-16T06:10:56.570Z,89.46
2023-04-16T06:13:29.147Z,89.78
2023-04-16T06:16:01.706Z,90.67
2023-04-16T06:18:34.385Z,89.95
2023-04-16T06:21:06.958Z,89.68
2023-04-16T06:23:39.565Z,91.40
2023-04-16T06:26:12.633Z,91.26
2023-04-16T06:28:45.172Z,90.71
2023-04-16T06:31:17.801Z,89.42
2023-04-16T06:33:50.315Z,89.57
2023-04-16T06:36:23.063Z,90.54
2023-04-16T06:38:55.755Z,89.59
2023-04-16T06:41:28.711Z,91.04
2023-04-16T06:44:01.241Z,90.06
2023-04-16T06:46:33.797Z,89.21
2023-04-16T06:49:07.383Z,88.95
2023-04-16T06:51:39.982Z,89.12
2023-04-16T06:54:13.628Z,88.82
2023-04-16T06:56:46.386Z,89.04
2023-04-16T06:59:18.941Z,88.07
2023-04-16T07:01:52.846Z,88.35
2023-04-16T07:04:25.932Z,88.35
2023-04-16T07:06:58.521Z,87.42
2023-04-16T07:09:30.985Z,87.51
2023-04-16T07:12:03.788Z,88.98
2023-04-16T07:14:36.307Z,88.04
2023-04-16T07:17:08.867Z,87.46
2023-04-16T07:19:41.463Z,88.57
2023-04-16T07:22:13.998Z,88.55
2023-04-16T07:24:46.541Z,88.84
2023-04-16T07:27:19.043Z,88.96
2023-04-16T07:29:51.529Z,88.98
2023-04-16T07:32:24.467Z,89.66
2023-04-16T07:34:57.158Z,88.70
2023-04-16T07:37:29.834Z,89.57
2023-04-16T07:40:02.345Z,90.05
2023-04-16T07:42:35.482Z,88.43
2023-04-16T07:45:08.763Z,88.51
2023-04-16T07:47:41.406Z,88.25
2023-04-16T07:50:14.050Z,88.35
2023-04-16T07:52:47.546Z,88.00
2023-04-16T07:55:20.291Z,88.01
2023-04-16T07:57:52.886Z,87.40
2023-04-16T08:00:26.240Z,87.53
2023-04-16T08:02:59.106Z,87.47
2023-04-16T08:05:31.754Z,88.41
2023-04-16T08:08:04.455Z,88.24
2023-04-16T08:10:36.949Z,88.56
2023-04-16T08:13:09.493Z,88.55
2023-04-16T08:15:41.957Z,88.91
2023-04-16T08:18:15.728Z,87.42
2023-04-16T08:20:48.282Z,87.35
2023-04-16T08:23:21.154Z,86.50
2023-04-16T08:25:54.658Z,86.73
2023-04-16T08:28:27.254Z,86.63
2023-04-16T08:30:59.857Z,86.61
2023-04-16T08:33:32.531Z,87.57
2023-04-16T08:36:05.534Z,87.35
2023-04-16T08:38:38.051Z,86.26
2023-04-16T08:41:13.355Z,86.77
2023-04-16T08:43:50.398Z,85.48
2023-04-16T08:46:26.695Z,86.05
2023-04-16T08:49:01.125Z,85.53
2023-04-16T08:51:42.527Z,86.28
2023-04-16T08:54:38.786Z,87.42
2023-04-16T08:57:19.395Z,87.20
2023-04-16T08:59:54.096Z,86.28
2023-04-16T09:02:27.464Z,85.56
2023-04-16T09:05:01.222Z,85.52
2023-04-16T09:07:35.641Z,87.14
2023-04-16T09:10:09.876Z,86.83
2023-04-16T09:12:42.953Z,85.85
2023-04-16T09:15:15.565Z,86.63
2023-04-16T09:17:48.216Z,87.79
2023-04-16T09:20:21.098Z,86.57
2023-04-16T09:22:53.672Z,87.89
2023-04-16T09:25:26.825Z,85.45
2023-04-16T09:27:59.416Z,85.99
2023-04-16T09:30:32.472Z,84.80
2023-04-16T09:33:23.192Z,84.53
2023-04-16T09:35:56.131Z,84.21
2023-04-16T09:38:49.783Z,83.85
2023-04-16T09:41:28.461Z,85.51
2023-04-16T09:44:04.229Z,85.74
2023-04-16T09:46:42.022Z,87.79
2023-04-16T09:49:16.859Z,85.42
2023-04-16T09:51:52.702Z,84.38
2023-04-16T09:54:26.393Z,84.48
2023-04-16T09:57:01.374Z,84.55
2023-04-16T09:59:36.345Z,84.19
2023-04-16T10:02:14.295Z,84.76
2023-04-16T10:04:53.084Z,84.62
2023-04-16T10:07:30.242Z,84.26
2023-04-16T10:10:04.750Z,83.28
2023-04-16T10:12:37.438Z,84.48
2023-04-16T10:15:10.670Z,83.50
2023-04-16T10:17:43.636Z,84.28
2023-04-16T10:20:17.839Z,84.26
2023-04-16T10:22:50.695Z,85.98
2023-04-16T10:25:24.410Z,85.88
2023-04-16T10:27:57.600Z,86.51
2023-04-16T10:30:31.013Z,84.65
2023-04-16T10:33:05.323Z,85.79
2023-04-16T10:35:41.201Z,84.93
2023-04-16T10:38:48.296Z,85.62
2023-04-16T10:41:21.128Z,84.95
2023-04-16T10:44:12.682Z,85.25
2023-04-16T10:46:52.075Z,85.35
2023-04-16T10:49:27.095Z,84.96
2023-04-16T10:52:07.744Z,85.45
2023-04-16T10:54:41.429Z,85.22
2023-04-16T10:57:20.054Z,85.05
2023-04-16T10:59:57.115Z,85.08
2023-04-16T11:02:29.927Z,84.93
2023-04-16T11:05:02.954Z,85.61
2023-04-16T11:07:35.866Z,84.49
2023-04-16T11:10:13.229Z,84.39
2023-04-16T11:12:47.406Z,85.12
2023-04-16T11:15:20.076Z,84.41
2023-04-16T11:17:52.855Z,83.45
2023-04-16T11:20:28.336Z,82.47
2023-04-16T11:23:01.102Z,82.59
2023-04-16T11:25:34.228Z,82.59
2023-04-16T11:28:06.881Z,82.66
2023-04-16T11:30:40.103Z,82.72
2023-04-16T11:33:12.756Z,81.76
2023-04-16T11:35:46.078Z,82.72
2023-04-16T11:38:18.736Z,81.22
2023-04-16T11:40:51.742Z,81.81
2023-04-16T11:43:26.457Z,81.37
2023-04-16T11:46:20.146Z,82.15
2023-04-16T11:48:59.927Z,82.28
2023-04-16T11:51:32.494Z,83.58
2023-04-16T11:54:06.076Z,83.60
2023-04-16T11:56:38.711Z,82.68
2023-04-16T11:59:17.329Z,84.39
2023-04-16T12:01:52.771Z,83.22
2023-04-16T12:04:27.298Z,82.64
2023-04-16T12:07:10.516Z,83.02
2023-04-16T12:09:44.169Z,84.26
2023-04-16T12:12:32.320Z,84.64
2023-04-16T12:15:05.726Z,83.83
2023-04-16T12:17:39.296Z,82.35
2023-04-16T12:20:15.698Z,83.01
2023-04-16T12:22:53.871Z,81.70
2023-04-16T12:25:26.523Z,82.37
2023-04-16T12:27:59.373Z,81.83
2023-04-16T12:30:32.154Z,81.43
2023-04-16T12:33:19.074Z,81.28
2023-04-16T12:35:52.494Z,82.71
2023-04-16T12:38:26.128Z,82.35
2023-04-16T12:40:58.993Z,81.40
2023-04-16T12:43:31.622Z,81.40
2023-04-16T12:46:04.824Z,81.66
2023-04-16T12:48:37.819Z,82.68
2023-04-16T12:51:10.366Z,80.00
2023-04-16T12:53:42.897Z,79.75
2023-04-16T12:56:18.518Z,79.44
2023-04-16T12:58:51.910Z,78.36
2023-04-16T13:01:24.561Z,77.90
2023-04-16T13:03:57.437Z,77.77
2023-04-16T13:06:33.753Z,76.66
2023-04-16T13:09:06.975Z,76.63
2023-04-16T13:11:39.532Z,76.96
2023-04-16T13:14:12.080Z,76.59
2023-04-16T13:16:44.750Z,76.49
2023-04-16T13:19:19.078Z,76.96
2023-04-16T13:21:51.778Z,78.75
2023-04-16T13:24:25.807Z,78.55
2023-04-16T13:26:58.320Z,80.30
2023-04-16T13:29:30.899Z,78.46
2023-04-16T13:32:04.337Z,78.84
2023-04-16T13:34:37.107Z,78.03
2023-04-16T13:37:09.827Z,78.55
2023-04-16T13:39:42.441Z,77.36
2023-04-16T13:42:14.964Z,76.79
2023-04-16T13:44:49.353Z,77.40
2023-04-16T13:47:22.162Z,75.99
2023-04-16T13:49:57.309Z,77.29
2023-04-16T13:52:29.831Z,77.71
2023-04-16T13:55:03.176Z,77.15
2023-04-16T13:57:35.765Z,77.21
2023-04-16T14:00:11.884Z,76.14
2023-04-16T14:02:46.305Z,76.53
2023-04-16T14:05:19.493Z,77.54
2023-04-16T14:07:52.104Z,78.16
2023-04-16T14:10:24.696Z,79.15
2023-04-16T14:12:57.768Z,78.68
2023-04-16T14:15:30.407Z,79.07
2023-04-16T14:18:03.736Z,79.84
2023-04-16T14:20:36.417Z,78.44
2023-04-16T14:23:08.890Z,80.45
2023-04-16T14:25:41.648Z,79.79
2023-04-16T14:28:15.690Z,79.58
2023-04-16T14:30:48.549Z,79.42
2023-04-16T14:33:21.253Z,80.82
2023-04-16T14:35:54.824Z,79.27
2023-04-16T14:38:27.391Z,80.86
2023-04-16T14:41:00.567Z,80.99
2023-04-16T14:43:40.361Z,80.80
2023-04-16T14:46:13.380Z,80.15
2023-04-16T14:48:46.194Z,78.40
2023-04-16T14:51:18.932Z,78.11
2023-04-16T14:53:51.503Z,77.88
2023-04-16T14:56:24.112Z,78.43
2023-04-16T14:58:56.657Z,77.29
2023-04-16T15:01:29.321Z,77.73
2023-04-16T15:04:03.037Z,77.71
2023-04-16T15:06:36.447Z,76.46
2023-04-16T15:09:10.406Z,74.53
2023-04-16T15:11:43.085Z,76.29
2023-04-16T15:14:16.650Z,76.78
2023-04-16T15:16:49.509Z,75.90
2023-04-16T15:19:22.542Z,75.06
2023-04-16T15:21:55.895Z,73.07
2023-04-16T15:24:28.557Z,72.91
2023-04-16T15:27:02.370Z,72.93
2023-04-16T15:29:35.741Z,72.06
2023-04-16T15:32:08.349Z,72.47
2023-04-16T15:34:45.002Z,73.53
2023-04-16T15:37:17.526Z,73.22
2023-04-16T15:39:50.044Z,73.30
2023-04-16T15:42:24.446Z,74.96
2023-04-16T15:44:57.103Z,74.58
2023-04-16T15:47:29.689Z,74.08
2023-04-16T15:50:03.258Z,75.70
2023-04-16T15:52:36.456Z,75.04
2023-04-16T15:55:10.063Z,74.80
2023-04-16T15:57:42.602Z,75.51
2023-04-16T16:00:18.825Z,75.76
2023-04-16T16:02:51.635Z,74.65
2023-04-16T16:05:24.369Z,75.02
2023-04-16T16:07:58.252Z,75.90
2023-04-16T16:10:30.862Z,74.62
2023-04-16T16:13:05.432Z,74.44
2023-04-16T16:15:40.913Z,74.35
2023-04-16T16:18:13.741Z,74.07
2023-04-16T16:20:46.817Z,74.66
2023-04-16T16:23:19.598Z,74.36
2023-04-16T16:25:55.861Z,74.51
2023-04-16T16:28:28.500Z,75.15
2023-04-16T16:31:02.076Z,74.44
2023-04-16T16:33:34.747Z,76.11
2023-04-16T16:36:10.853Z,76.31
2023-04-16T16:38:48.810Z,74.80
2023-04-16T16:41:21.773Z,75.44
2023-04-16T16:43:56.220Z,74.98
2023-04-16T16:46:29.534Z,74.29
2023-04-16T16:49:05.201Z,75.66
2023-04-16T16:51:37.833Z,75.55
2023-04-16T16:54:10.631Z,75.56
2023-04-16T16:56:43.200Z,74.56
2023-04-16T16:59:15.821Z,75.39
2023-04-16T17:01:48.407Z,75.80
2023-04-16T17:04:23.220Z,75.43
2023-04-16T17:06:55.901Z,75.49
2023-04-16T17:09:28.985Z,74.86
2023-04-16T17:12:01.864Z,75.44
2023-04-16T17:14:35.357Z,75.20
2023-04-16T17:17:07.952Z,75.44
2023-04-16T17:19:40.633Z,76.21
2023-04-16T17:22:14.031Z,75.79
2023-04-16T17:24:47.139Z,76.67
2023-04-16T17:27:19.755Z,77.04
2023-04-16T17:29:58.589Z,76.59
2023-04-16T17:32:32.724Z,76.18
2023-04-16T17:35:06.819Z,76.10
2023-04-16T17:37:39.619Z,76.41
2023-04-16T17:40:14.301Z,75.85
2023-04-16T17:42:48.767Z,76.39
2023-04-16T17:45:21.304Z,76.21
2023-04-16T17:47:54.110Z,76.13
2023-04-16T17:50:27.777Z,77.63
2023-04-16T17:53:06.653Z,77.66
2023-04-16T17:55:39.258Z,78.78
2023-04-16T17:58:11.824Z,77.58
2023-04-16T18:00:45.953Z,77.93
2023-04-16T18:03:20.701Z,77.31
2023-04-16T18:05:54.710Z,75.78
2023-04-16T18:08:27.702Z,76.59
2023-04-16T18:11:00.299Z,75.98
2023-04-16T18:13:35.895Z,76.01
2023-04-16T18:16:17.333Z,76.87
2023-04-16T18:18:50.181Z,77.50
2023-04-16T18:21:22.766Z,77.25
2023-04-16T18:23:55.433Z,76.81
2023-04-16T18:26:29.884Z,77.63
2023-04-16T18:29:03.947Z,76.98
2023-04-16T18:31:36.622Z,78.46
2023-04-16T18:34:09.202Z,78.47
2023-04-16T18:36:49.550Z,78.16
2023-04-16T18:39:22.172Z,79.12
2023-04-16T18:41:54.717Z,77.22
2023-04-16T18:44:27.868Z,77.22
2023-04-16T18:47:00.607Z,78.23
2023-04-16T18:49:33.271Z,77.57
2023-04-16T18:52:05.897Z,76.91
2023-04-16T18:54:38.619Z,77.37
2023-04-16T18:57:11.212Z,78.29
2023-04-16T18:59:43.719Z,78.06
2023-04-16T19:02:16.339Z,77.03
2023-04-16T19:04:48.978Z,77.73
2023-04-16T19:07:21.790Z,78.21
2023-04-16T19:09:54.367Z,77.85
2023-04-16T19:12:27.054Z,79.38
2023-04-16T19:14:59.876Z,79.42
2023-04-16T19:17:32.509Z,78.18
2023-04-16T19:20:11.116Z,77.73
2023-04-16T19:22:43.694Z,78.40
2023-04-16T19:25:16.345Z,78.20
2023-04-16T19:27:48.902Z,77.11
2023-04-16T19:30:21.557Z,77.39
2023-04-16T19:32:55.413Z,76.69
2023-04-16T19:35:30.046Z,76.24
2023-04-16T19:38:02.562Z,76.27
2023-04-16T19:40:35.819Z,76.91
2023-04-16T19:43:08.752Z,78.06
2023-04-16T19:45:46.588Z,77.25
2023-04-16T19:48:22.505Z,77.28
2023-04-16T19:50:54.908Z,76.78
2023-04-16T19:53:27.428Z,76.68
2023-04-16T19:55:59.898Z,77.08
2023-04-16T19:58:32.478Z,77.85
2023-04-16T20:01:11.623Z,78.36
2023-04-16T20:03:44.264Z,77.95
2023-04-16T20:06:17.646Z,79.10
2023-04-16T20:08:50.263Z,78.60
2023-04-16T20:11:22.804Z,78.15
2023-04-16T20:13:56.136Z,77.85
2023-04-16T20:16:31.934Z,77.91
2023-04-16T20:19:09.014Z,79.14
2023-04-16T20:21:43.255Z,78.68
2023-04-16T20:24:18.885Z,78.97
2023-04-16T20:26:51.490Z,79.50
2023-04-16T20:29:23.985Z,79.94
2023-04-16T20:31:56.589Z,79.67
2023-04-16T20:34:29.062Z,79.86
2023-04-16T20:37:01.569Z,80.85
2023-04-16T20:39:34.293Z,79.70
2023-04-16T20:42:10.056Z,80.36
2023-04-16T20:44:42.631Z,79.18
2023-04-16T20:47:16.935Z,79.22
2023-04-16T20:49:49.651Z,78.82
2023-04-16T20:52:22.219Z,79.25
2023-04-16T20:54:54.757Z,79.81
2023-04-16T20:57:28.150Z,79.74
2023-04-16T21:00:00.673Z,80.22
2023-04-16T21:02:33.441Z,80.05
2023-04-16T21:05:10.256Z,79.66
2023-04-16T21:07:43.155Z,79.92
2023-04-16T21:10:21.962Z,79.66
2023-04-16T21:12:54.485Z,80.96
2023-04-16T21:15:27.104Z,79.87
2023-04-16T21:17:59.618Z,80.92
2023-04-16T21:20:33.304Z,80.68
2023-04-16T21:23:07.264Z,79.69
2023-04-16T21:25:39.791Z,80.15
2023-04-16T21:28:12.331Z,79.55
2023-04-16T21:30:44.807Z,78.41
2023-04-16T21:33:17.323Z,79.30
2023-04-16T21:35:53.799Z,79.84
2023-04-16T21:38:26.329Z,79.83
2023-04-16T21:41:01.365Z,80.10
2023-04-16T21:43:33.938Z,79.09
2023-04-16T21:46:06.456Z,79.99
2023-04-16T21:48:39.128Z,79.73
2023-04-16T21:51:11.688Z,79.55
2023-04-16T21:53:44.257Z,79.48
2023-04-16T21:56:16.712Z,80.34
2023-04-16T21:58:49.362Z,80.09
2023-04-16T22:01:22.032Z,80.58
2023-04-16T22:03:54.649Z,81.81
2023-04-16T22:06:27.302Z,81.32
2023-04-16T22:08:59.795Z,80.82
2023-04-16T22:11:32.386Z,80.55
2023-04-16T22:14:08.259Z,81.12
2023-04-16T22:16:41.911Z,80.13
2023-04-16T22:19:14.832Z,80.75
2023-04-16T22:21:48.461Z,80.73
2023-04-16T22:24:21.290Z,80.29
2023-04-16T22:26:53.813Z,80.71
2023-04-16T22:29:26.338Z,80.52
2023-04-16T22:32:00.758Z,81.00
2023-04-16T22:34:36.151Z,81.11
2023-04-16T22:37:08.802Z,81.01
2023-04-16T22:39:41.411Z,81.53
2023-04-16T22:42:14.003Z,80.82
2023-04-16T22:44:46.563Z,81.20
2023-04-16T22:47:19.100Z,81.05
2023-04-16T22:49:52.612Z,81.10
2023-04-16T22:52:25.610Z,80.54
2023-04-16T22:54:58.146Z,80.28
2023-04-16T22:57:31.045Z,81.50
2023-04-16T23:00:06.469Z,81.79
2023-04-16T23:02:39.096Z,81.26
2023-04-16T23:05:11.897Z,81.92
2023-04-16T23:07:44.555Z,83.49
2023-04-16T23:10:17.195Z,82.35
2023-04-16T23:12:49.717Z,82.71
2023-04-16T23:15:22.268Z,82.37
2023-04-16T23:17:54.906Z,82.73
2023-04-16T23:20:29.364Z,82.35
2023-04-16T23:23:01.912Z,82.04
2023-04-16T23:25:34.448Z,82.51
2023-04-16T23:28:06.918Z,82.12
2023-04-16T23:30:39.453Z,82.06
2023-04-16T23:33:11.912Z,82.01
2023-04-16T23:35:44.560Z,82.80
2023-04-16T23:38:17.085Z,82.02
2023-04-16T23:40:49.696Z,82.66
2023-04-16T23:43:22.360Z,82.23
2023-04-16T23:45:54.980Z,81.32
2023-04-16T23:48:28.684Z,81.74
2023-04-16T23:51:01.243Z,82.22
2023-04-16T23:53:36.259Z,81.81
2023-04-16T23:56:11.049Z,81.77
2023-04-16T23:58:43.660Z,82.12
